createdAt,value
2018-11-23T00:00:26.366Z,63.40
2018-11-23T00:02:55.636Z,71.93
2018-11-23T00:05:24.228Z,59.73
2018-11-23T00:07:53.406Z,63.57
2018-11-23T00:10:23.248Z,51.70
2018-11-23T00:12:51.796Z,65.67
2018-11-23T00:15:21.443Z,60.50
2018-11-23T00:17:49.971Z,60.73
2018-11-23T00:20:19.896Z,73.37
2018-11-23T00:22:48.597Z,58.40
2018-11-23T00:25:18.495Z,69.33
2018-11-23T00:27:47.023Z,59.20
2018-11-23T00:30:19.564Z,71.50
2018-11-23T00:32:48.780Z,56.73
2018-11-23T00:35:19.076Z,71.53
2018-11-23T00:37:48.223Z,59.63
2018-11-23T00:40:22.112Z,62.67
2018-11-23T00:42:51.063Z,78.10
2018-11-23T00:45:19.629Z,63.57
2018-11-23T00:47:48.795Z,59.53
2018-11-23T00:50:18.545Z,64.70
2018-11-23T00:52:47.436Z,64.27
2018-11-23T00:55:17.311Z,61.83
2018-11-23T00:57:45.799Z,79.27
2018-11-23T01:00:18.202Z,69.13
2018-11-23T01:02:46.970Z,71.73
2018-11-23T01:05:16.946Z,70.90
2018-11-23T01:07:46.046Z,72.30
2018-11-23T01:10:16.125Z,68.03
2018-11-23T01:12:46.076Z,70.67
2018-11-23T01:15:14.713Z,62.63
2018-11-23T01:17:43.548Z,69.17
2018-11-23T01:20:15.052Z,63.67
2018-11-23T01:22:43.680Z,75.67
2018-11-23T01:25:13.498Z,64.77
2018-11-23T01:27:43.083Z,57.30
2018-11-23T01:30:20.219Z,68.50
2018-11-23T01:32:49.006Z,64.90
2018-11-23T01:35:17.580Z,68.00
2018-11-23T01:37:46.094Z,81.27
2018-11-23T01:40:17.387Z,75.90
2018-11-23T01:42:46.315Z,70.73
2018-11-23T01:45:15.411Z,64.80
2018-11-23T01:47:44.244Z,70.20
2018-11-23T01:50:16.367Z,60.83
2018-11-23T01:52:46.185Z,65.10
2018-11-23T01:55:15.315Z,67.40
2018-11-23T01:57:44.216Z,59.57
2018-11-23T02:00:14.866Z,65.27
2018-11-23T02:02:43.703Z,70.33
2018-11-23T02:05:12.374Z,58.27
2018-11-23T02:07:41.005Z,58.80
2018-11-23T02:10:10.797Z,62.80
2018-11-23T02:12:39.350Z,71.57
2018-11-23T02:15:10.881Z,73.77
2018-11-23T02:17:39.447Z,67.40
2018-11-23T02:20:09.792Z,64.23
2018-11-23T02:22:38.315Z,65.97
2018-11-23T02:25:07.115Z,59.60
2018-11-23T02:27:35.803Z,55.17
2018-11-23T02:30:05.310Z,73.37
2018-11-23T02:32:33.862Z,66.77
2018-11-23T02:35:02.396Z,73.47
2018-11-23T02:37:30.964Z,66.17
2018-11-23T02:39:59.566Z,88.87
2018-11-23T02:42:28.055Z,66.40
2018-11-23T02:44:56.645Z,62.87
2018-11-23T02:47:25.155Z,72.03
2018-11-23T02:49:53.719Z,67.90
2018-11-23T02:52:22.357Z,78.03
2018-11-23T02:54:50.886Z,63.73
2018-11-23T02:57:19.497Z,71.33
2018-11-23T02:59:48.011Z,69.43
2018-11-23T03:02:16.544Z,67.03
2018-11-23T03:04:45.172Z,66.63
2018-11-23T03:07:13.684Z,75.60
2018-11-23T03:09:42.592Z,66.60
2018-11-23T03:12:11.229Z,58.67
2018-11-23T03:14:39.823Z,62.37
2018-11-23T03:17:08.307Z,60.47
2018-11-23T03:19:37.176Z,60.40
2018-11-23T03:22:05.884Z,62.70
2018-11-23T03:24:34.424Z,66.47
2018-11-23T03:27:03.084Z,59.07
2018-11-23T03:29:31.796Z,55.97
2018-11-23T03:32:00.349Z,67.10
2018-11-23T03:34:28.905Z,69.77
2018-11-23T03:36:57.435Z,66.43
2018-11-23T03:39:25.950Z,61.37
2018-11-23T03:41:54.475Z,65.20
2018-11-23T03:44:22.954Z,64.23
2018-11-23T03:46:51.513Z,72.67
2018-11-23T03:49:20.140Z,70.30
2018-11-23T03:51:48.684Z,77.03
2018-11-23T03:54:17.323Z,59.73
2018-11-23T03:56:45.833Z,61.67
2018-11-23T03:59:14.428Z,67.67
2018-11-23T04:01:42.961Z,58.37
2018-11-23T04:04:11.485Z,60.50
2018-11-23T04:06:40.179Z,63.57
2018-11-23T04:09:09.361Z,75.33
2018-11-23T04:11:38.246Z,76.13
2018-11-23T04:14:06.812Z,58.63
2018-11-23T04:16:35.340Z,66.37
2018-11-23T04:19:03.869Z,66.50
2018-11-23T04:21:32.533Z,60.37
2018-11-23T04:24:01.104Z,78.63
2018-11-23T04:26:29.652Z,55.17
2018-11-23T04:28:58.258Z,60.70
2018-11-23T04:31:26.898Z,71.40
2018-11-23T04:33:55.417Z,72.70
2018-11-23T04:36:23.990Z,70.63
2018-11-23T04:38:52.539Z,75.77
2018-11-23T04:41:21.055Z,67.77
2018-11-23T04:43:49.840Z,70.97
2018-11-23T04:46:18.400Z,63.07
2018-11-23T04:48:47.164Z,68.10
2018-11-23T04:51:15.715Z,57.47
2018-11-23T04:53:44.306Z,60.00
2018-11-23T04:56:12.953Z,58.43
2018-11-23T04:58:41.476Z,64.60
2018-11-23T05:01:10.014Z,61.50
2018-11-23T05:03:38.733Z,53.90
2018-11-23T05:06:07.503Z,70.47
2018-11-23T05:08:36.015Z,72.60
2018-11-23T05:11:04.595Z,63.77
2018-11-23T05:13:33.164Z,55.10
2018-11-23T05:16:01.739Z,56.20
2018-11-23T05:18:30.395Z,64.40
2018-11-23T05:20:59.018Z,54.20
2018-11-23T05:23:27.610Z,62.63
2018-11-23T05:25:56.210Z,54.07
2018-11-23T05:28:24.783Z,62.60
2018-11-23T05:30:53.442Z,63.73
2018-11-23T05:33:22.036Z,65.50
2018-11-23T05:35:51.012Z,57.90
2018-11-23T05:38:19.544Z,47.90
2018-11-23T05:40:48.055Z,65.13
2018-11-23T05:43:16.711Z,69.27
2018-11-23T05:45:45.242Z,65.00
2018-11-23T05:48:13.740Z,62.20
2018-11-23T05:50:42.413Z,59.67
2018-11-23T05:53:11.025Z,56.37
2018-11-23T05:55:39.543Z,57.67
2018-11-23T05:58:08.057Z,65.93
2018-11-23T06:00:36.799Z,65.63
2018-11-23T06:03:05.501Z,61.93
2018-11-23T06:05:34.050Z,59.43
2018-11-23T06:08:02.716Z,66.73
2018-11-23T06:10:31.337Z,67.93
2018-11-23T06:12:59.852Z,62.40
2018-11-23T06:15:28.422Z,78.67
2018-11-23T06:17:57.033Z,55.87
2018-11-23T06:20:26.512Z,65.47
2018-11-23T06:22:55.940Z,60.93
2018-11-23T06:25:40.582Z,71.17
2018-11-23T06:28:09.166Z,69.93
2018-11-23T06:30:37.754Z,69.07
2018-11-23T06:33:20.461Z,78.33
2018-11-23T06:35:49.016Z,69.13
2018-11-23T06:38:18.066Z,75.03
2018-11-23T06:40:46.616Z,88.03
2018-11-23T06:43:15.196Z,74.30
2018-11-23T06:45:44.578Z,78.70
2018-11-23T06:48:13.149Z,68.60
2018-11-23T06:50:41.711Z,82.17
2018-11-23T06:53:10.339Z,77.23
2018-11-23T06:55:38.888Z,64.57
2018-11-23T06:58:07.595Z,73.50
2018-11-23T07:00:36.101Z,68.77
2018-11-23T07:03:04.672Z,66.77
2018-11-23T07:05:33.235Z,70.03
2018-11-23T07:08:02.643Z,60.73
2018-11-23T07:10:31.236Z,69.57
2018-11-23T07:12:59.789Z,75.17
2018-11-23T07:15:28.356Z,65.67
2018-11-23T07:17:57.217Z,69.17
2018-11-23T07:20:25.755Z,69.90
2018-11-23T07:22:54.606Z,77.27
2018-11-23T07:25:23.118Z,72.60
2018-11-23T07:27:51.757Z,63.70
2018-11-23T07:30:21.814Z,74.97
2018-11-23T07:32:50.372Z,69.87
2018-11-23T07:35:18.911Z,74.33
2018-11-23T07:37:47.499Z,70.53
2018-11-23T07:40:30.852Z,65.00
2018-11-23T07:42:59.353Z,66.23
2018-11-23T07:45:28.016Z,70.77
2018-11-23T07:47:56.564Z,85.13
2018-11-23T07:50:25.051Z,75.90
2018-11-23T07:52:53.726Z,62.63
2018-11-23T07:55:22.282Z,82.27
2018-11-23T07:57:50.893Z,75.57
2018-11-23T08:00:20.784Z,71.10
2018-11-23T08:02:49.745Z,68.37
2018-11-23T08:05:19.104Z,68.73
2018-11-23T08:07:47.673Z,77.00
2018-11-23T08:10:15.652Z,68.77
2018-11-23T08:12:45.408Z,81.33
2018-11-23T08:15:17.194Z,85.20
2018-11-23T08:17:46.400Z,69.80
2018-11-23T08:20:16.476Z,72.83
2018-11-23T08:22:45.098Z,71.40
2018-11-23T08:25:14.817Z,76.50
2018-11-23T08:27:44.180Z,83.67
2018-11-23T08:30:20.403Z,73.47
2018-11-23T08:32:49.050Z,66.00
2018-11-23T08:35:17.643Z,67.37
2018-11-23T08:37:46.262Z,76.37
2018-11-23T08:40:18.674Z,86.27
2018-11-23T08:42:48.210Z,76.67
2018-11-23T08:45:18.184Z,75.17
2018-11-23T08:47:46.703Z,69.97
2018-11-23T08:50:18.122Z,62.33
2018-11-23T08:52:46.679Z,79.07
2018-11-23T08:55:16.190Z,80.70
2018-11-23T08:57:44.736Z,72.70
2018-11-23T09:00:18.416Z,66.53
2018-11-23T09:02:48.868Z,74.17
2018-11-23T09:05:17.913Z,84.50
2018-11-23T09:07:47.406Z,78.40
2018-11-23T09:10:18.055Z,73.33
2018-11-23T09:12:49.382Z,64.63
2018-11-23T09:15:17.943Z,76.40
2018-11-23T09:17:46.706Z,68.20
2018-11-23T09:20:16.043Z,73.13
2018-11-23T09:22:44.597Z,75.57
2018-11-23T09:25:16.545Z,74.10
2018-11-23T09:27:45.211Z,74.87
2018-11-23T09:30:16.399Z,71.93
2018-11-23T09:32:46.120Z,75.87
2018-11-23T09:35:14.656Z,70.17
2018-11-23T09:37:43.437Z,66.90
2018-11-23T09:40:14.509Z,62.90
2018-11-23T09:42:43.760Z,65.60
2018-11-23T09:45:14.687Z,84.53
2018-11-23T09:47:44.078Z,72.23
2018-11-23T09:50:14.082Z,67.77
2018-11-23T09:52:42.924Z,62.73
2018-11-23T09:55:12.034Z,73.73
2018-11-23T09:57:40.991Z,74.33
2018-11-23T10:00:14.031Z,68.70
2018-11-23T10:02:42.902Z,65.83
2018-11-23T10:05:12.258Z,72.10
2018-11-23T10:07:41.353Z,64.87
2018-11-23T10:10:11.416Z,59.90
2018-11-23T10:12:40.512Z,60.70
2018-11-23T10:15:10.519Z,62.47
2018-11-23T10:17:39.320Z,61.87
2018-11-23T10:20:10.229Z,63.97
2018-11-23T10:22:38.796Z,61.43
2018-11-23T10:25:08.705Z,57.57
2018-11-23T10:27:37.360Z,65.50
2018-11-23T10:30:06.572Z,63.60
2018-11-23T10:32:35.138Z,62.63
2018-11-23T10:35:03.815Z,56.33
2018-11-23T10:37:32.405Z,55.77
2018-11-23T10:40:00.971Z,66.93
2018-11-23T10:42:29.504Z,64.63
2018-11-23T10:44:57.994Z,58.70
2018-11-23T10:47:26.709Z,65.50
2018-11-23T10:49:55.231Z,60.27
2018-11-23T10:52:23.809Z,57.63
2018-11-23T10:54:52.306Z,49.17
2018-11-23T10:57:20.840Z,61.47
2018-11-23T10:59:49.403Z,53.97
2018-11-23T11:02:23.005Z,53.73
2018-11-23T11:04:52.817Z,52.30
2018-11-23T11:07:21.339Z,48.40
2018-11-23T11:09:49.885Z,52.33
2018-11-23T11:12:18.576Z,51.90
2018-11-23T11:14:47.121Z,57.43
2018-11-23T11:17:15.621Z,59.53
2018-11-23T11:19:44.177Z,83.47
2018-11-23T11:22:12.716Z,58.07
2018-11-23T11:24:41.292Z,58.07
2018-11-23T11:27:09.819Z,46.67
2018-11-23T11:29:38.385Z,56.07
2018-11-23T11:32:06.996Z,61.13
2018-11-23T11:34:35.627Z,55.93
2018-11-23T11:37:04.129Z,54.73
2018-11-23T11:39:32.707Z,48.77
2018-11-23T11:42:01.325Z,59.87
2018-11-23T11:44:29.844Z,51.43
2018-11-23T11:46:58.457Z,53.57
2018-11-23T11:49:27.033Z,56.37
2018-11-23T11:51:55.593Z,62.07
2018-11-23T11:54:24.300Z,53.73
2018-11-23T11:56:52.827Z,50.23
2018-11-23T11:59:21.694Z,54.63
2018-11-23T12:01:50.302Z,50.20
2018-11-23T12:04:18.862Z,45.20
2018-11-23T12:06:47.403Z,45.50
2018-11-23T12:09:15.955Z,60.73
2018-11-23T12:11:44.496Z,57.93
2018-11-23T12:14:13.043Z,51.53
2018-11-23T12:16:41.643Z,48.57
2018-11-23T12:19:10.158Z,57.43
2018-11-23T12:21:38.717Z,49.10
2018-11-23T12:24:07.326Z,46.87
2018-11-23T12:26:35.842Z,48.27
2018-11-23T12:29:04.513Z,49.70
2018-11-23T12:31:33.107Z,49.20
2018-11-23T12:34:01.661Z,53.33
2018-11-23T12:36:30.316Z,49.23
2018-11-23T12:38:58.891Z,51.53
2018-11-23T12:41:27.454Z,50.00
2018-11-23T12:43:56.020Z,52.73
2018-11-23T12:46:24.555Z,60.50
2018-11-23T12:48:53.076Z,45.60
2018-11-23T12:51:21.807Z,54.90
2018-11-23T12:53:50.381Z,49.00
2018-11-23T12:56:18.963Z,49.57
2018-11-23T12:58:47.540Z,44.47
2018-11-23T13:01:16.165Z,56.67
2018-11-23T13:03:44.727Z,53.07
2018-11-23T13:06:13.303Z,46.30
2018-11-23T13:08:41.891Z,49.10
2018-11-23T13:11:10.491Z,44.83
2018-11-23T13:13:39.200Z,49.93
2018-11-23T13:16:07.772Z,48.47
2018-11-23T13:18:36.305Z,47.70
2018-11-23T13:21:05.259Z,49.80
2018-11-23T13:23:33.850Z,52.93
2018-11-23T13:26:02.429Z,46.63
2018-11-23T13:28:30.970Z,52.20
2018-11-23T13:31:00.264Z,55.83
2018-11-23T13:33:32.663Z,44.30
2018-11-23T13:36:01.251Z,57.87
2018-11-23T13:38:29.801Z,48.37
2018-11-23T13:40:58.404Z,50.63
2018-11-23T13:43:26.933Z,46.33
2018-11-23T13:45:55.501Z,48.20
2018-11-23T13:48:24.039Z,44.87
2018-11-23T13:50:52.927Z,50.00
2018-11-23T13:53:21.497Z,46.80
2018-11-23T13:55:50.051Z,46.70
2018-11-23T13:58:18.612Z,45.93
2018-11-23T14:00:47.206Z,47.33
2018-11-23T14:03:15.732Z,50.23
2018-11-23T14:05:44.297Z,53.97
2018-11-23T14:08:12.820Z,51.67
2018-11-23T14:10:41.365Z,44.90
2018-11-23T14:13:11.485Z,54.17
2018-11-23T14:15:38.400Z,49.00
2018-11-23T14:18:06.987Z,52.60
2018-11-23T14:20:35.606Z,51.03
2018-11-23T14:23:04.262Z,45.27
2018-11-23T14:25:32.886Z,49.33
2018-11-23T14:28:01.538Z,44.20
2018-11-23T14:30:32.553Z,51.23
2018-11-23T14:33:01.785Z,44.83
2018-11-23T14:35:31.439Z,48.20
2018-11-23T14:38:00.657Z,51.50
2018-11-23T14:40:29.203Z,46.23
2018-11-23T14:42:58.210Z,54.80
2018-11-23T14:45:31.022Z,45.10
2018-11-23T14:48:01.859Z,54.40
2018-11-23T14:50:31.635Z,52.37
2018-11-23T14:53:00.663Z,50.83
2018-11-23T14:55:29.685Z,45.73
2018-11-23T14:57:58.518Z,48.67
2018-11-23T15:00:29.606Z,55.73
2018-11-23T15:02:59.190Z,48.57
2018-11-23T15:05:27.778Z,48.30
2018-11-23T15:07:56.502Z,44.20
2018-11-23T15:10:26.500Z,52.20
2018-11-23T15:12:56.546Z,63.37
2018-11-23T15:15:26.543Z,50.13
2018-11-23T15:17:55.742Z,55.53
2018-11-23T15:20:28.900Z,45.10
2018-11-23T15:23:07.185Z,51.93
2018-11-23T15:25:35.750Z,48.57
2018-11-23T15:28:04.397Z,48.73
2018-11-23T15:30:35.116Z,48.70
2018-11-23T15:33:04.962Z,49.13
2018-11-23T15:35:34.992Z,60.67
2018-11-23T15:38:10.003Z,53.73
2018-11-23T15:40:33.233Z,50.20
2018-11-23T15:43:03.292Z,54.53
2018-11-23T15:45:32.779Z,48.63
2018-11-23T15:48:01.985Z,46.93
2018-11-23T15:50:33.924Z,56.43
2018-11-23T15:53:02.602Z,48.00
2018-11-23T15:55:32.824Z,62.53
2018-11-23T15:58:03.008Z,45.90
2018-11-23T16:00:33.873Z,55.67
2018-11-23T16:03:02.487Z,65.07
2018-11-23T16:05:31.059Z,57.43
2018-11-23T16:08:01.416Z,58.27
2018-11-23T16:10:33.169Z,55.13
2018-11-23T16:13:06.788Z,50.57
2018-11-23T16:15:32.083Z,51.37
2018-11-23T16:18:01.300Z,57.27
2018-11-23T16:20:33.299Z,56.43
2018-11-23T16:23:03.421Z,56.87
2018-11-23T16:25:31.979Z,59.10
2018-11-23T16:28:02.480Z,54.77
2018-11-23T16:30:32.919Z,63.83
2018-11-23T16:33:02.685Z,52.17
2018-11-23T16:35:32.586Z,56.37
2018-11-23T16:38:02.651Z,55.73
2018-11-23T16:40:32.758Z,63.90
2018-11-23T16:43:01.935Z,63.00
2018-11-23T16:45:31.850Z,58.20
2018-11-23T16:48:01.601Z,63.00
2018-11-23T16:50:30.663Z,63.83
2018-11-23T16:52:59.297Z,60.43
2018-11-23T16:55:28.243Z,71.60
2018-11-23T16:57:58.036Z,82.90
2018-11-23T17:00:28.812Z,56.73
2018-11-23T17:02:58.591Z,64.40
2018-11-23T17:05:31.629Z,67.50
2018-11-23T17:08:00.181Z,60.07
2018-11-23T17:10:28.757Z,70.77
2018-11-23T17:12:57.280Z,65.03
2018-11-23T17:15:27.076Z,70.60
2018-11-23T17:17:55.578Z,74.30
2018-11-23T17:20:25.388Z,77.70
2018-11-23T17:22:55.032Z,75.40
2018-11-23T17:25:24.465Z,70.80
2018-11-23T17:27:53.818Z,66.93
2018-11-23T17:30:30.783Z,80.47
2018-11-23T17:32:59.376Z,75.80
2018-11-23T17:35:28.185Z,74.23
2018-11-23T17:37:56.894Z,70.53
2018-11-23T17:40:27.508Z,68.37
2018-11-23T17:42:56.473Z,70.33
2018-11-23T17:45:26.994Z,80.30
2018-11-23T17:47:55.957Z,84.93
2018-11-23T17:50:29.425Z,74.87
2018-11-23T17:52:58.663Z,73.90
2018-11-23T17:55:27.721Z,77.53
2018-11-23T17:57:56.743Z,75.03
2018-11-23T18:00:28.442Z,61.40
2018-11-23T18:02:57.736Z,79.80
2018-11-23T18:05:26.983Z,99.30
2018-11-23T18:07:55.692Z,78.20
2018-11-23T18:10:25.473Z,76.10
2018-11-23T18:12:54.747Z,67.23
2018-11-23T18:15:24.632Z,70.90
2018-11-23T18:17:54.121Z,59.97
2018-11-23T18:20:23.640Z,68.40
2018-11-23T18:22:53.346Z,73.43
2018-11-23T18:25:24.763Z,72.77
2018-11-23T18:27:58.424Z,70.77
2018-11-23T18:30:27.190Z,71.80
2018-11-23T18:32:55.747Z,71.33
2018-11-23T18:35:24.323Z,63.47
2018-11-23T18:37:52.827Z,74.07
2018-11-23T18:40:21.367Z,63.47
2018-11-23T18:42:49.908Z,68.73
2018-11-23T18:45:18.469Z,75.00
2018-11-23T18:47:47.016Z,61.27
2018-11-23T18:50:16.587Z,60.90
2018-11-23T18:52:45.126Z,67.60
2018-11-23T18:55:18.259Z,73.70
2018-11-23T18:57:43.129Z,79.10
2018-11-23T19:00:18.339Z,68.70
2018-11-23T19:02:47.731Z,75.77
2018-11-23T19:05:18.853Z,76.67
2018-11-23T19:07:47.432Z,75.73
2018-11-23T19:10:16.003Z,66.20
2018-11-23T19:12:44.616Z,78.93
2018-11-23T19:15:25.072Z,74.20
2018-11-23T19:17:48.600Z,88.17
2018-11-23T19:20:19.385Z,88.97
2018-11-23T19:22:49.176Z,81.00
2018-11-23T19:25:17.773Z,85.23
2018-11-23T19:27:46.345Z,76.57
2018-11-23T19:30:16.133Z,73.00
2018-11-23T19:32:44.675Z,79.07
2018-11-23T19:35:13.335Z,82.93
2018-11-23T19:37:41.845Z,72.57
2018-11-23T19:40:12.589Z,84.07
2018-11-23T19:42:41.111Z,81.57
2018-11-23T19:45:12.166Z,69.80
2018-11-23T19:47:40.725Z,82.50
2018-11-23T19:50:10.958Z,87.90
2018-11-23T19:52:39.735Z,83.33
2018-11-23T19:55:08.807Z,73.47
2018-11-23T19:57:37.422Z,82.00
2018-11-23T20:00:11.315Z,92.70
2018-11-23T20:02:40.176Z,82.30
2018-11-23T20:05:09.204Z,79.80
2018-11-23T20:07:37.883Z,77.30
2018-11-23T20:10:10.748Z,87.53
2018-11-23T20:12:39.763Z,93.33
2018-11-23T20:15:10.680Z,81.47
2018-11-23T20:17:41.393Z,78.43
2018-11-23T20:20:09.507Z,89.97
2018-11-23T20:22:38.347Z,108.87
2018-11-23T20:25:10.352Z,83.57
2018-11-23T20:27:39.217Z,84.93
2018-11-23T20:30:13.880Z,77.97
2018-11-23T20:32:42.658Z,77.20
2018-11-23T20:35:12.352Z,76.33
2018-11-23T20:37:40.959Z,79.63
2018-11-23T20:40:12.899Z,75.57
2018-11-23T20:42:41.610Z,75.30
2018-11-23T20:45:11.243Z,79.17
2018-11-23T20:47:39.830Z,65.50
2018-11-23T20:50:10.762Z,80.47
2018-11-23T20:52:39.439Z,67.30
2018-11-23T20:55:10.503Z,65.13
2018-11-23T20:57:39.090Z,66.93
2018-11-23T21:00:10.814Z,77.60
2018-11-23T21:02:39.450Z,78.90
2018-11-23T21:05:09.436Z,76.73
2018-11-23T21:07:38.196Z,76.53
2018-11-23T21:10:19.647Z,83.47
2018-11-23T21:12:41.551Z,81.23
2018-11-23T21:15:30.865Z,94.17
2018-11-23T21:18:01.609Z,83.37
2018-11-23T21:20:29.496Z,90.60
2018-11-23T21:22:58.018Z,95.03
2018-11-23T21:25:26.581Z,117.73
2018-11-23T21:27:55.186Z,81.27
2018-11-23T21:30:24.757Z,82.90
2018-11-23T21:32:54.737Z,75.37
2018-11-23T21:35:23.558Z,88.30
2018-11-23T21:37:52.139Z,91.97
2018-11-23T21:40:20.732Z,77.73
2018-11-23T21:42:49.333Z,82.23
2018-11-23T21:45:19.650Z,86.80
2018-11-23T21:47:48.250Z,87.77
2018-11-23T21:50:25.165Z,83.73
2018-11-23T21:52:49.788Z,85.17
2018-11-23T21:55:20.823Z,86.07
2018-11-23T21:57:49.718Z,85.63
2018-11-23T22:00:18.350Z,92.27
2018-11-23T22:02:50.580Z,80.10
2018-11-23T22:05:19.193Z,95.30
2018-11-23T22:07:47.752Z,89.43
2018-11-23T22:10:18.946Z,92.13
2018-11-23T22:12:47.540Z,92.23
2018-11-23T22:15:19.277Z,84.27
2018-11-23T22:17:48.394Z,81.07
2018-11-23T22:20:18.609Z,86.47
2018-11-23T22:22:47.173Z,83.97
2018-11-23T22:25:17.513Z,76.50
2018-11-23T22:27:46.364Z,86.30
2018-11-23T22:30:17.133Z,92.73
2018-11-23T22:32:45.825Z,78.90
2018-11-23T22:35:14.649Z,87.17
2018-11-23T22:37:43.257Z,101.00
2018-11-23T22:40:13.178Z,82.50
2018-11-23T22:42:42.843Z,92.37
2018-11-23T22:45:12.794Z,89.13
2018-11-23T22:47:41.381Z,99.10
2018-11-23T22:50:14.393Z,92.13
2018-11-23T22:52:42.908Z,88.97
2018-11-23T22:55:12.519Z,87.50
2018-11-23T22:57:41.074Z,85.83
2018-11-23T23:00:18.795Z,89.73
2018-11-23T23:02:49.897Z,95.93
2018-11-23T23:05:19.410Z,99.87
2018-11-23T23:07:48.046Z,95.83
2018-11-23T23:10:16.826Z,88.83
2018-11-23T23:12:45.402Z,85.80
2018-11-23T23:15:13.993Z,88.57
2018-11-23T23:17:43.183Z,98.37
2018-11-23T23:20:12.996Z,85.67
2018-11-23T23:22:41.514Z,83.17
2018-11-23T23:25:10.972Z,78.03
2018-11-23T23:27:39.547Z,84.93
2018-11-23T23:30:09.890Z,82.57
2018-11-23T23:32:38.738Z,97.33
2018-11-23T23:35:09.334Z,88.83
2018-11-23T23:37:38.024Z,87.07
2018-11-23T23:40:09.147Z,89.63
2018-11-23T23:42:37.810Z,93.53
2018-11-23T23:45:15.799Z,95.93
2018-11-23T23:47:44.379Z,104.53
2018-11-23T23:50:14.173Z,87.00
2018-11-23T23:52:42.714Z,99.03
2018-11-23T23:55:11.468Z,96.33
2018-11-23T23:57:41.088Z,95.40
